Terminal Aerodrome Forecast
Issued by NWS Sioux Falls, SD

Home | Current Version | Previous Version | Graphics & Text | Print | Product List | Glossary On
Versions: 1 2 3 4 5 6 7 8 9 10 11 12 13 14 15 16 17 18 19
000
FTUS43 KFSD 051412 AAA
TAFHON
TAF AMD
KHON 051412Z 0514/0612 17018G25KT P6SM FEW120
     FM051900 17018G25KT P6SM SCT050
     FM060100 15010KT P6SM BKN045
     FM060300 03010KT 4SM TSRA SCT020CB OVC040
     FM060600 36013KT P6SM -SHRA OVC015=

USA.gov is the U.S. government's official web portal to all federal, state and local government web resources and services.